createdAt,value
2022-11-21T00:01:27.108Z,100.00
2022-11-21T00:03:54.560Z,100.00
2022-11-21T00:06:23.725Z,100.00
2022-11-21T00:08:51.204Z,100.00
2022-11-21T00:11:18.540Z,100.00
2022-11-21T00:13:45.768Z,100.00
2022-11-21T00:16:16.252Z,100.00
2022-11-21T00:18:44.432Z,100.00
2022-11-21T00:21:18.107Z,100.00
2022-11-21T00:23:47.094Z,100.00
2022-11-21T00:26:16.654Z,100.00
2022-11-21T00:28:44.023Z,100.00
2022-11-21T00:31:23.634Z,100.00
2022-11-21T00:33:51.031Z,100.00
2022-11-21T00:36:18.275Z,100.00
2022-11-21T00:38:45.529Z,100.00
2022-11-21T00:41:12.688Z,100.00
2022-11-21T00:43:39.799Z,100.00
2022-11-21T00:46:07.002Z,100.00
2022-11-21T00:48:34.371Z,100.00
2022-11-21T00:51:02.041Z,100.00
2022-11-21T00:53:30.425Z,100.00
2022-11-21T00:55:58.265Z,100.00
2022-11-21T00:58:26.122Z,100.00
2022-11-21T01:00:53.619Z,100.00
2022-11-21T01:03:20.878Z,100.00
2022-11-21T01:05:48.324Z,100.00
2022-11-21T01:08:15.612Z,100.00
2022-11-21T01:10:42.893Z,100.00
2022-11-21T01:13:10.233Z,100.00
2022-11-21T01:15:37.290Z,100.00
2022-11-21T01:18:04.612Z,100.00
2022-11-21T01:20:31.754Z,100.00
2022-11-21T01:22:58.959Z,100.00
2022-11-21T01:25:26.312Z,100.00
2022-11-21T01:27:53.530Z,100.00
2022-11-21T01:30:20.828Z,100.00
2022-11-21T01:32:50.744Z,100.00
2022-11-21T01:35:19.064Z,100.00
2022-11-21T01:37:49.976Z,100.00
2022-11-21T01:40:17.570Z,100.00
2022-11-21T01:43:06.812Z,100.00
2022-11-21T01:46:19.404Z,100.00
2022-11-21T01:48:58.589Z,100.00
2022-11-21T01:51:38.535Z,100.00
2022-11-21T01:54:24.943Z,100.00
2022-11-21T01:57:05.694Z,100.00
2022-11-21T01:59:48.491Z,100.00
2022-11-21T02:02:21.045Z,100.00
2022-11-21T02:04:50.535Z,100.00
2022-11-21T02:07:20.675Z,100.00
2022-11-21T02:09:53.119Z,100.00
2022-11-21T02:12:48.258Z,100.00
2022-11-21T02:15:16.071Z,100.00
2022-11-21T02:17:43.079Z,100.00
2022-11-21T02:20:14.721Z,100.00
2022-11-21T02:23:14.400Z,100.00
2022-11-21T02:25:43.257Z,100.00
2022-11-21T02:28:17.360Z,100.00
2022-11-21T02:30:44.597Z,100.00
2022-11-21T02:33:12.791Z,100.00
2022-11-21T02:35:40.725Z,100.00
2022-11-21T02:38:33.225Z,100.00
2022-11-21T02:41:14.457Z,100.00
2022-11-21T02:43:54.113Z,100.00
2022-11-21T02:46:21.325Z,100.00
2022-11-21T02:48:48.393Z,100.00
2022-11-21T02:51:15.374Z,100.00
2022-11-21T02:53:42.382Z,100.00
2022-11-21T02:56:09.413Z,100.00
2022-11-21T02:58:36.775Z,100.00
2022-11-21T03:01:03.827Z,100.00
2022-11-21T03:03:31.013Z,100.00
2022-11-21T03:05:58.075Z,100.00
2022-11-21T03:08:25.155Z,100.00
2022-11-21T03:10:52.228Z,100.00
2022-11-21T03:13:19.239Z,100.00
2022-11-21T03:15:46.314Z,100.00
2022-11-21T03:18:13.319Z,100.00
2022-11-21T03:20:40.402Z,100.00
2022-11-21T03:23:07.448Z,100.00
2022-11-21T03:25:34.525Z,100.00
2022-11-21T03:28:01.526Z,100.00
2022-11-21T03:30:28.566Z,100.00
2022-11-21T03:32:56.937Z,100.00
2022-11-21T03:35:24.873Z,100.00
2022-11-21T03:37:51.978Z,100.00
2022-11-21T03:40:19.086Z,100.00
2022-11-21T03:42:46.104Z,100.00
2022-11-21T03:45:13.105Z,100.00
2022-11-21T03:47:40.096Z,100.00
2022-11-21T03:50:07.896Z,100.00
2022-11-21T03:52:34.998Z,100.00
2022-11-21T03:55:02.050Z,100.00
2022-11-21T03:57:29.117Z,100.00
2022-11-21T03:59:56.135Z,100.00
2022-11-21T04:02:23.097Z,100.00
2022-11-21T04:04:50.090Z,100.00
2022-11-21T04:07:17.124Z,100.00
2022-11-21T04:09:44.229Z,100.00
2022-11-21T04:12:11.219Z,100.00
2022-11-21T04:14:38.420Z,100.00
2022-11-21T04:17:05.453Z,100.00
2022-11-21T04:19:32.516Z,100.00
2022-11-21T04:21:59.465Z,100.00
2022-11-21T04:24:26.854Z,100.00
2022-11-21T04:26:56.996Z,100.00
2022-11-21T04:29:24.010Z,100.00
2022-11-21T04:31:50.966Z,100.00
2022-11-21T04:34:18.014Z,100.00
2022-11-21T04:36:45.715Z,100.00
2022-11-21T04:39:12.745Z,100.00
2022-11-21T04:41:39.680Z,100.00
2022-11-21T04:44:06.700Z,100.00
2022-11-21T04:46:33.703Z,100.00
2022-11-21T04:49:00.798Z,100.00
2022-11-21T04:51:28.541Z,100.00
2022-11-21T04:53:55.520Z,100.00
2022-11-21T04:56:22.517Z,100.00
2022-11-21T04:58:53.567Z,100.00
2022-11-21T05:01:20.803Z,100.00
2022-11-21T05:03:47.831Z,100.00
2022-11-21T05:06:14.830Z,100.00
2022-11-21T05:08:41.805Z,100.00
2022-11-21T05:11:27.394Z,100.00
2022-11-21T05:13:55.091Z,100.00
2022-11-21T05:16:22.055Z,100.00
2022-11-21T05:18:49.129Z,100.00
2022-11-21T05:21:16.674Z,100.00
2022-11-21T05:23:43.595Z,100.00
2022-11-21T05:26:10.615Z,100.00
2022-11-21T05:28:37.928Z,100.00
2022-11-21T05:31:04.988Z,100.00
2022-11-21T05:33:31.959Z,100.00
2022-11-21T05:35:59.208Z,100.00
2022-11-21T05:38:26.245Z,100.00
2022-11-21T05:40:53.497Z,100.00
2022-11-21T05:43:38.917Z,100.00
2022-11-21T05:46:06.077Z,100.00
2022-11-21T05:48:34.362Z,100.00
2022-11-21T05:51:01.369Z,100.00
2022-11-21T05:53:28.407Z,100.00
2022-11-21T05:55:55.406Z,100.00
2022-11-21T05:58:23.080Z,100.00
2022-11-21T06:00:50.013Z,100.00
2022-11-21T06:03:34.617Z,100.00
2022-11-21T06:06:13.610Z,100.00
2022-11-21T06:08:46.880Z,100.00
2022-11-21T06:11:16.349Z,100.00
2022-11-21T06:13:44.178Z,100.00
2022-11-21T06:16:15.110Z,100.00
2022-11-21T06:18:45.224Z,100.00
2022-11-21T06:21:27.114Z,100.00
2022-11-21T06:23:57.054Z,100.00
2022-11-21T06:26:26.846Z,100.00
2022-11-21T06:28:55.583Z,100.00
2022-11-21T06:31:27.580Z,100.00
2022-11-21T06:33:59.485Z,100.00
2022-11-21T06:36:27.069Z,100.00
2022-11-21T06:38:55.836Z,100.00
2022-11-21T06:41:26.033Z,100.00
2022-11-21T06:43:53.552Z,100.00
2022-11-21T06:46:20.641Z,100.00
2022-11-21T06:48:47.800Z,100.00
2022-11-21T06:51:20.619Z,100.00
2022-11-21T06:53:56.009Z,100.00
2022-11-21T06:56:27.593Z,100.00
2022-11-21T06:58:55.944Z,100.00
2022-11-21T07:01:24.089Z,100.00
2022-11-21T07:03:51.243Z,100.00
2022-11-21T07:06:18.314Z,100.00
2022-11-21T07:08:45.339Z,100.00
2022-11-21T07:11:29.831Z,100.00
2022-11-21T07:13:56.927Z,100.00
2022-11-21T07:16:26.546Z,100.00
2022-11-21T07:18:53.748Z,100.00
2022-11-21T07:21:20.961Z,100.00
2022-11-21T07:23:48.777Z,100.00
2022-11-21T07:26:15.880Z,100.00
2022-11-21T07:28:43.338Z,100.00
2022-11-21T07:31:13.795Z,100.00
2022-11-21T07:33:43.530Z,100.00
2022-11-21T07:36:12.327Z,100.00
2022-11-21T07:38:41.017Z,100.00
2022-11-21T07:41:08.076Z,100.00
2022-11-21T07:43:35.214Z,100.00
2022-11-21T07:46:02.232Z,100.00
2022-11-21T07:48:29.529Z,100.00
2022-11-21T07:50:56.679Z,100.00
2022-11-21T07:53:24.295Z,100.00
2022-11-21T07:55:51.338Z,100.00
2022-11-21T07:58:18.407Z,100.00
2022-11-21T08:00:45.714Z,100.00
2022-11-21T08:03:14.023Z,100.00
2022-11-21T08:05:43.286Z,100.00
2022-11-21T08:08:12.955Z,100.00
2022-11-21T08:10:47.169Z,100.00
2022-11-21T08:13:15.179Z,100.00
2022-11-21T08:15:42.349Z,100.00
2022-11-21T08:18:10.173Z,100.00
2022-11-21T08:20:37.733Z,100.00
2022-11-21T08:23:06.712Z,100.00
2022-11-21T08:25:37.371Z,100.00
2022-11-21T08:28:05.525Z,99.94
2022-11-21T08:30:33.824Z,100.00
2022-11-21T08:33:02.234Z,99.85
2022-11-21T08:35:29.890Z,99.81
2022-11-21T08:38:01.844Z,98.56
2022-11-21T08:40:31.546Z,98.45
2022-11-21T08:42:59.987Z,98.35
2022-11-21T08:45:27.097Z,99.10
2022-11-21T08:47:54.985Z,98.31
2022-11-21T08:50:23.911Z,97.93
2022-11-21T08:52:51.200Z,98.04
2022-11-21T08:55:18.458Z,97.61
2022-11-21T08:57:45.383Z,97.48
2022-11-21T09:00:13.634Z,95.85
2022-11-21T09:02:40.687Z,95.66
2022-11-21T09:05:08.992Z,95.87
2022-11-21T09:07:37.097Z,96.94
2022-11-21T09:10:04.996Z,95.71
2022-11-21T09:12:32.030Z,95.04
2022-11-21T09:15:17.203Z,95.35
2022-11-21T09:18:02.860Z,95.33
2022-11-21T09:20:34.896Z,95.56
2022-11-21T09:23:10.159Z,95.44
2022-11-21T09:25:37.264Z,95.79
2022-11-21T09:28:07.221Z,95.20
2022-11-21T09:30:35.092Z,94.34
2022-11-21T09:33:08.117Z,93.94
2022-11-21T09:35:35.145Z,93.29
2022-11-21T09:38:02.835Z,93.16
2022-11-21T09:40:31.488Z,92.83
2022-11-21T09:42:58.416Z,92.72
2022-11-21T09:45:36.677Z,91.22
2022-11-21T09:48:24.496Z,91.44
2022-11-21T09:50:59.674Z,91.41
2022-11-21T09:53:39.423Z,91.79
2022-11-21T09:56:16.182Z,91.25
2022-11-21T09:59:11.664Z,90.31
2022-11-21T10:01:39.161Z,89.53
2022-11-21T10:04:06.154Z,89.48
2022-11-21T10:06:47.185Z,89.43
2022-11-21T10:09:55.857Z,89.44
2022-11-21T10:12:52.824Z,88.96
2022-11-21T10:15:47.149Z,89.08
2022-11-21T10:19:04.747Z,87.75
2022-11-21T10:21:57.344Z,87.59
2022-11-21T10:25:14.259Z,86.12
2022-11-21T10:28:23.272Z,85.16
2022-11-21T10:30:52.224Z,84.92
2022-11-21T10:33:32.510Z,85.05
2022-11-21T10:36:13.223Z,83.74
2022-11-21T10:38:43.484Z,83.05
2022-11-21T10:41:37.843Z,82.90
2022-11-21T10:44:46.622Z,83.20
2022-11-21T10:47:31.037Z,83.24
2022-11-21T10:50:09.801Z,82.04
2022-11-21T10:53:01.495Z,82.43
2022-11-21T10:55:28.540Z,81.83
2022-11-21T10:57:55.883Z,81.57
2022-11-21T11:00:27.671Z,79.97
2022-11-21T11:02:57.624Z,80.36
2022-11-21T11:05:29.882Z,79.61
2022-11-21T11:08:08.100Z,80.28
2022-11-21T11:10:41.423Z,80.07
2022-11-21T11:13:46.831Z,79.96
2022-11-21T11:16:21.683Z,79.88
2022-11-21T11:19:08.694Z,79.93
2022-11-21T11:21:41.544Z,79.41
2022-11-21T11:24:13.908Z,79.29
2022-11-21T11:26:51.470Z,78.60
2022-11-21T11:29:28.028Z,78.74
2022-11-21T11:31:57.780Z,78.62
2022-11-21T11:34:39.187Z,78.46
2022-11-21T11:37:41.484Z,77.87
2022-11-21T11:40:22.771Z,77.58
2022-11-21T11:43:44.867Z,77.92
2022-11-21T11:46:52.236Z,79.10
2022-11-21T11:49:53.230Z,79.94
2022-11-21T11:52:24.708Z,80.96
2022-11-21T11:55:05.651Z,81.35
2022-11-21T11:57:37.306Z,81.27
2022-11-21T12:00:30.927Z,80.41
2022-11-21T12:03:28.859Z,79.93
2022-11-21T12:06:12.042Z,80.84
2022-11-21T12:09:03.211Z,81.31
2022-11-21T12:12:07.819Z,81.35
2022-11-21T12:15:12.352Z,82.05
2022-11-21T12:17:48.619Z,82.14
2022-11-21T12:20:21.634Z,82.50
2022-11-21T12:22:52.328Z,82.96
2022-11-21T12:25:25.624Z,82.62
2022-11-21T12:27:56.185Z,81.55
2022-11-21T12:31:15.475Z,82.20
2022-11-21T12:34:10.710Z,81.82
2022-11-21T12:37:06.972Z,80.96
2022-11-21T12:39:50.530Z,81.03
2022-11-21T12:43:01.237Z,82.68
2022-11-21T12:45:34.731Z,84.13
2022-11-21T12:48:52.951Z,84.71
2022-11-21T12:52:08.270Z,85.14
2022-11-21T12:54:47.108Z,85.91
2022-11-21T12:57:21.677Z,85.34
2022-11-21T13:00:29.382Z,86.72
2022-11-21T13:03:41.865Z,85.91
2022-11-21T13:06:23.684Z,86.15
2022-11-21T13:08:53.422Z,85.91
2022-11-21T13:11:57.250Z,85.32
2022-11-21T13:15:07.310Z,84.58
2022-11-21T13:18:14.426Z,84.88
2022-11-21T13:20:51.574Z,85.30
2022-11-21T13:23:42.740Z,84.76
2022-11-21T13:26:30.543Z,84.08
2022-11-21T13:29:16.133Z,84.67
2022-11-21T13:31:43.678Z,85.41
2022-11-21T13:34:35.179Z,85.62
2022-11-21T13:37:03.800Z,84.72
2022-11-21T13:39:34.270Z,85.05
2022-11-21T13:42:28.060Z,84.10
2022-11-21T13:44:55.528Z,84.40
2022-11-21T13:47:25.613Z,84.31
2022-11-21T13:50:07.636Z,83.50
2022-11-21T13:52:50.168Z,84.87
2022-11-21T13:55:28.335Z,85.85
2022-11-21T13:58:15.728Z,86.17
2022-11-21T14:01:22.989Z,86.90
2022-11-21T14:04:39.656Z,87.34
2022-11-21T14:07:26.713Z,88.66
2022-11-21T14:09:56.555Z,89.60
2022-11-21T14:12:41.033Z,90.34
2022-11-21T14:15:28.844Z,91.22
2022-11-21T14:17:59.354Z,91.65
2022-11-21T14:20:44.051Z,92.42
2022-11-21T14:23:22.967Z,92.75
2022-11-21T14:26:01.429Z,93.09
2022-11-21T14:28:36.114Z,94.37
2022-11-21T14:31:09.424Z,94.71
2022-11-21T14:33:49.181Z,95.06
2022-11-21T14:36:20.876Z,95.69
2022-11-21T14:39:36.926Z,96.06
2022-11-21T14:42:03.884Z,96.86
2022-11-21T14:44:31.365Z,97.12
2022-11-21T14:47:25.828Z,97.22
2022-11-21T14:50:01.071Z,96.72
2022-11-21T14:52:33.598Z,96.85
2022-11-21T14:57:52.170Z,98.08
2022-11-21T15:03:24.264Z,99.23
2022-11-21T15:06:06.475Z,100.00
2022-11-21T15:12:16.555Z,100.00
2022-11-21T15:14:50.820Z,100.00
2022-11-21T15:17:22.276Z,100.00
2022-11-21T15:20:21.683Z,100.00
2022-11-21T15:22:50.564Z,100.00
2022-11-21T15:25:47.193Z,100.00
2022-11-21T15:28:21.718Z,100.00
2022-11-21T15:30:55.295Z,100.00
2022-11-21T15:33:22.464Z,100.00
2022-11-21T15:36:12.449Z,100.00
2022-11-21T15:38:51.469Z,100.00
2022-11-21T15:41:18.438Z,100.00
2022-11-21T15:43:48.697Z,100.00
2022-11-21T15:46:31.540Z,100.00
2022-11-21T15:49:31.033Z,100.00
2022-11-21T15:54:48.894Z,100.00
2022-11-21T15:57:12.767Z,100.00
2022-11-21T15:59:58.020Z,100.00
2022-11-21T16:02:25.039Z,100.00
2022-11-21T16:04:53.505Z,100.00
2022-11-21T16:07:20.588Z,100.00
2022-11-21T16:09:48.023Z,100.00
2022-11-21T16:12:15.034Z,100.00
2022-11-21T16:14:42.051Z,100.00
2022-11-21T16:17:09.194Z,100.00
2022-11-21T16:19:36.175Z,100.00
2022-11-21T16:22:03.133Z,100.00
2022-11-21T16:24:30.195Z,100.00
2022-11-21T16:26:57.723Z,100.00
2022-11-21T16:29:24.814Z,100.00
2022-11-21T16:31:52.420Z,100.00
2022-11-21T16:34:20.142Z,100.00
2022-11-21T16:36:47.169Z,100.00
2022-11-21T16:39:18.184Z,100.00
2022-11-21T16:41:46.794Z,100.00
2022-11-21T16:44:16.328Z,100.00
2022-11-21T16:46:47.324Z,100.00
2022-11-21T16:49:14.369Z,100.00
2022-11-21T16:51:41.603Z,100.00
2022-11-21T16:54:09.537Z,100.00
2022-11-21T16:56:36.879Z,100.00
2022-11-21T16:59:04.031Z,100.00
2022-11-21T17:01:31.231Z,100.00
2022-11-21T17:03:58.493Z,100.00
2022-11-21T17:06:29.695Z,100.00
2022-11-21T17:08:59.591Z,100.00
2022-11-21T17:11:30.676Z,100.00
2022-11-21T17:14:05.257Z,100.00
2022-11-21T17:16:34.511Z,100.00
2022-11-21T17:19:03.104Z,100.00
2022-11-21T17:21:31.516Z,100.00
2022-11-21T17:23:59.246Z,100.00
2022-11-21T17:26:29.466Z,100.00
2022-11-21T17:29:03.524Z,100.00
2022-11-21T17:31:30.946Z,100.00
2022-11-21T17:34:00.821Z,100.00
2022-11-21T17:36:30.153Z,100.00
2022-11-21T17:38:57.622Z,100.00
2022-11-21T17:41:26.782Z,100.00
2022-11-21T17:43:58.239Z,100.00
2022-11-21T17:46:26.285Z,100.00
2022-11-21T17:48:58.114Z,100.00
2022-11-21T17:51:35.428Z,100.00
2022-11-21T17:54:02.984Z,100.00
2022-11-21T17:56:33.644Z,100.00
2022-11-21T17:59:01.775Z,100.00
2022-11-21T18:01:29.694Z,100.00
2022-11-21T18:04:00.128Z,100.00
2022-11-21T18:06:31.242Z,100.00
2022-11-21T18:08:58.757Z,100.00
2022-11-21T18:11:34.588Z,100.00
2022-11-21T18:14:06.738Z,100.00
2022-11-21T18:16:34.576Z,100.00
2022-11-21T18:19:01.859Z,100.00
2022-11-21T18:21:31.513Z,100.00
2022-11-21T18:24:00.368Z,100.00
2022-11-21T18:26:31.434Z,100.00
2022-11-21T18:29:28.688Z,100.00
2022-11-21T18:31:49.327Z,100.00
2022-11-21T18:34:16.632Z,100.00
2022-11-21T18:36:43.720Z,100.00
2022-11-21T18:39:14.797Z,100.00
2022-11-21T18:41:43.503Z,100.00
2022-11-21T18:44:12.627Z,100.00
2022-11-21T18:46:42.219Z,100.00
2022-11-21T18:49:09.757Z,100.00
2022-11-21T18:51:37.251Z,100.00
2022-11-21T18:54:08.240Z,100.00
2022-11-21T18:56:37.703Z,100.00
2022-11-21T18:59:06.773Z,100.00
2022-11-21T19:01:36.331Z,100.00
2022-11-21T19:04:04.082Z,100.00
2022-11-21T19:06:31.389Z,100.00
2022-11-21T19:08:59.272Z,100.00
2022-11-21T19:11:29.821Z,100.00
2022-11-21T19:13:58.169Z,100.00
2022-11-21T19:16:27.508Z,100.00
2022-11-21T19:19:26.349Z,100.00
2022-11-21T19:21:42.959Z,100.00
2022-11-21T19:24:14.810Z,100.00
2022-11-21T19:26:42.630Z,100.00
2022-11-21T19:29:10.662Z,100.00
2022-11-21T19:31:43.065Z,100.00
2022-11-21T19:34:13.874Z,100.00
2022-11-21T19:36:41.252Z,100.00
2022-11-21T19:39:09.151Z,100.00
2022-11-21T19:41:36.537Z,100.00
2022-11-21T19:44:03.695Z,100.00
2022-11-21T19:46:35.202Z,100.00
2022-11-21T19:49:02.717Z,100.00
2022-11-21T19:51:36.556Z,100.00
2022-11-21T19:54:05.759Z,100.00
2022-11-21T19:56:33.513Z,100.00
2022-11-21T19:59:00.544Z,100.00
2022-11-21T20:01:30.716Z,100.00
2022-11-21T20:04:00.774Z,100.00
2022-11-21T20:06:34.339Z,100.00
2022-11-21T20:09:14.814Z,100.00
2022-11-21T20:11:44.539Z,100.00
2022-11-21T20:14:19.521Z,100.00
2022-11-21T20:16:49.855Z,100.00
2022-11-21T20:19:19.417Z,100.00
2022-11-21T20:21:47.291Z,100.00
2022-11-21T20:24:14.922Z,100.00
2022-11-21T20:26:43.457Z,100.00
2022-11-21T20:29:13.487Z,100.00
2022-11-21T20:31:42.001Z,100.00
2022-11-21T20:34:27.501Z,100.00
2022-11-21T20:36:54.800Z,100.00
2022-11-21T20:39:22.089Z,100.00
2022-11-21T20:41:49.186Z,100.00
2022-11-21T20:45:30.157Z,100.00
2022-11-21T20:47:07.626Z,100.00
2022-11-21T20:49:34.879Z,100.00
2022-11-21T20:54:49.142Z,100.00
2022-11-21T20:57:16.204Z,100.00
2022-11-21T20:59:43.681Z,100.00
2022-11-21T21:02:14.471Z,100.00
2022-11-21T21:04:42.737Z,100.00
2022-11-21T21:07:10.645Z,100.00
2022-11-21T21:09:38.227Z,100.00
2022-11-21T21:12:06.184Z,100.00
2022-11-21T21:14:33.779Z,100.00
2022-11-21T21:17:00.950Z,100.00
2022-11-21T21:19:28.727Z,100.00
2022-11-21T21:21:57.652Z,100.00
2022-11-21T21:24:25.102Z,100.00
2022-11-21T21:26:52.348Z,100.00
2022-11-21T21:29:21.117Z,100.00
2022-11-21T21:31:52.829Z,100.00
2022-11-21T21:34:22.598Z,100.00
2022-11-21T21:36:51.453Z,100.00
2022-11-21T21:39:18.886Z,100.00
2022-11-21T21:41:47.289Z,100.00
2022-11-21T21:44:15.620Z,100.00
2022-11-21T21:46:43.100Z,100.00
2022-11-21T21:49:10.531Z,100.00
2022-11-21T21:51:38.254Z,100.00
2022-11-21T21:54:06.669Z,100.00
2022-11-21T21:56:34.427Z,100.00
2022-11-21T21:59:01.828Z,100.00
2022-11-21T22:01:32.168Z,100.00
2022-11-21T22:04:02.384Z,100.00
2022-11-21T22:06:32.388Z,100.00
2022-11-21T22:09:00.115Z,100.00
2022-11-21T22:11:33.411Z,100.00
2022-11-21T22:14:10.907Z,100.00
2022-11-21T22:16:38.275Z,100.00
2022-11-21T22:19:05.775Z,100.00
2022-11-21T22:21:36.173Z,100.00
2022-11-21T22:24:25.341Z,100.00
2022-11-21T22:26:53.064Z,100.00
2022-11-21T22:29:20.127Z,100.00
2022-11-21T22:31:47.420Z,100.00
2022-11-21T22:34:14.784Z,100.00
2022-11-21T22:36:43.076Z,100.00
2022-11-21T22:39:10.231Z,100.00
2022-11-21T22:41:37.409Z,100.00
2022-11-21T22:44:04.929Z,100.00
2022-11-21T22:46:32.894Z,100.00
2022-11-21T22:49:00.690Z,100.00
2022-11-21T22:51:29.985Z,100.00
2022-11-21T22:53:57.846Z,100.00
2022-11-21T22:56:27.253Z,100.00
2022-11-21T22:58:55.084Z,100.00
2022-11-21T23:01:26.663Z,100.00
2022-11-21T23:03:55.867Z,100.00
2022-11-21T23:06:26.625Z,100.00
2022-11-21T23:08:56.661Z,100.00
2022-11-21T23:11:28.090Z,100.00
2022-11-21T23:13:56.783Z,100.00
2022-11-21T23:16:25.232Z,100.00
2022-11-21T23:18:54.355Z,100.00
2022-11-21T23:21:22.024Z,100.00
2022-11-21T23:23:49.204Z,100.00
2022-11-21T23:26:16.436Z,100.00
2022-11-21T23:28:43.575Z,100.00
2022-11-21T23:31:11.419Z,100.00
2022-11-21T23:33:38.765Z,100.00
2022-11-21T23:36:06.388Z,100.00
2022-11-21T23:38:33.528Z,100.00
2022-11-21T23:41:00.767Z,100.00
2022-11-21T23:43:28.087Z,100.00
2022-11-21T23:45:55.697Z,100.00
2022-11-21T23:48:24.416Z,100.00
2022-11-21T23:50:52.088Z,100.00
2022-11-21T23:53:22.995Z,100.00
2022-11-21T23:55:50.319Z,100.00
2022-11-21T23:58:17.943Z,100.00
